sensor_id;sensor_type;location;lat;lon;timestamp;P1;durP1;ratioP1;P2;durP2;ratioP2
14007;SDS011;61651;45.508;12.232;2022-10-17T00:01:16;42.78;;;34.20;;
14007;SDS011;61651;45.508;12.232;2022-10-17T00:04:18;47.15;;;35.53;;
14007;SDS011;61651;45.508;12.232;2022-10-17T00:07:20;46.00;;;35.50;;
14007;SDS011;61651;45.508;12.232;2022-10-17T00:10:23;45.85;;;36.67;;
14007;SDS011;61651;45.508;12.232;2022-10-17T00:13:25;48.75;;;35.90;;
14007;SDS011;61651;45.508;12.232;2022-10-17T00:16:29;47.83;;;35.88;;
14007;SDS011;61651;45.508;12.232;2022-10-17T00:19:35;45.95;;;36.13;;
14007;SDS011;61651;45.508;12.232;2022-10-17T00:22:37;46.33;;;36.35;;
14007;SDS011;61651;45.508;12.232;2022-10-17T00:25:39;48.05;;;37.45;;
14007;SDS011;61651;45.508;12.232;2022-10-17T00:28:41;49.50;;;38.15;;
14007;SDS011;61651;45.508;12.232;2022-10-17T00:31:47;45.88;;;35.10;;
14007;SDS011;61651;45.508;12.232;2022-10-17T00:34:49;48.72;;;37.25;;
14007;SDS011;61651;45.508;12.232;2022-10-17T00:37:51;52.20;;;38.03;;
14007;SDS011;61651;45.508;12.232;2022-10-17T00:40:53;50.17;;;37.97;;
14007;SDS011;61651;45.508;12.232;2022-10-17T00:43:56;51.78;;;37.35;;
14007;SDS011;61651;45.508;12.232;2022-10-17T00:47:01;51.13;;;37.25;;
14007;SDS011;61651;45.508;12.232;2022-10-17T00:50:08;48.30;;;37.70;;
14007;SDS011;61651;45.508;12.232;2022-10-17T00:53:11;49.95;;;38.05;;
14007;SDS011;61651;45.508;12.232;2022-10-17T00:56:15;55.28;;;39.40;;
14007;SDS011;61651;45.508;12.232;2022-10-17T00:59:19;51.47;;;39.05;;
14007;SDS011;61651;45.508;12.232;2022-10-17T01:02:24;55.22;;;39.40;;
14007;SDS011;61651;45.508;12.232;2022-10-17T01:05:26;55.63;;;38.92;;
14007;SDS011;61651;45.508;12.232;2022-10-17T01:08:29;55.72;;;39.80;;
14007;SDS011;61651;45.508;12.232;2022-10-17T01:11:32;53.22;;;40.22;;
14007;SDS011;61651;45.508;12.232;2022-10-17T01:14:46;54.83;;;40.20;;
14007;SDS011;61651;45.508;12.232;2022-10-17T01:18:02;52.08;;;38.80;;
14007;SDS011;61651;45.508;12.232;2022-10-17T01:24:47;51.75;;;36.97;;
14007;SDS011;61651;45.508;12.232;2022-10-17T01:28:11;53.42;;;37.95;;
14007;SDS011;61651;45.508;12.232;2022-10-17T01:31:22;53.15;;;37.63;;
14007;SDS011;61651;45.508;12.232;2022-10-17T01:34:31;50.22;;;39.08;;
14007;SDS011;61651;45.508;12.232;2022-10-17T01:37:39;54.40;;;39.53;;
14007;SDS011;61651;45.508;12.232;2022-10-17T01:40:47;49.20;;;37.80;;
14007;SDS011;61651;45.508;12.232;2022-10-17T01:43:52;52.45;;;38.47;;
14007;SDS011;61651;45.508;12.232;2022-10-17T01:47:02;51.30;;;38.50;;
14007;SDS011;61651;45.508;12.232;2022-10-17T01:50:08;54.95;;;37.35;;
14007;SDS011;61651;45.508;12.232;2022-10-17T01:53:15;50.78;;;38.05;;
14007;SDS011;61651;45.508;12.232;2022-10-17T01:56:21;53.05;;;38.08;;
14007;SDS011;61651;45.508;12.232;2022-10-17T01:59:28;53.83;;;39.08;;
14007;SDS011;61651;45.508;12.232;2022-10-17T02:02:35;51.67;;;38.58;;
14007;SDS011;61651;45.508;12.232;2022-10-17T02:05:39;51.20;;;37.42;;
14007;SDS011;61651;45.508;12.232;2022-10-17T02:08:43;52.90;;;37.45;;
14007;SDS011;61651;45.508;12.232;2022-10-17T02:11:49;50.85;;;37.75;;
14007;SDS011;61651;45.508;12.232;2022-10-17T02:15:08;49.17;;;37.35;;
14007;SDS011;61651;45.508;12.232;2022-10-17T02:18:27;53.38;;;37.00;;
14007;SDS011;61651;45.508;12.232;2022-10-17T02:21:44;51.63;;;38.95;;
14007;SDS011;61651;45.508;12.232;2022-10-17T02:24:53;53.35;;;37.35;;
14007;SDS011;61651;45.508;12.232;2022-10-17T02:28:05;48.20;;;36.25;;
14007;SDS011;61651;45.508;12.232;2022-10-17T02:31:14;51.45;;;37.05;;
14007;SDS011;61651;45.508;12.232;2022-10-17T02:34:23;45.85;;;35.40;;
14007;SDS011;61651;45.508;12.232;2022-10-17T02:37:28;47.90;;;35.20;;
14007;SDS011;61651;45.508;12.232;2022-10-17T02:40:32;50.15;;;35.75;;
14007;SDS011;61651;45.508;12.232;2022-10-17T02:43:36;52.33;;;38.55;;
14007;SDS011;61651;45.508;12.232;2022-10-17T02:46:38;49.90;;;36.53;;
14007;SDS011;61651;45.508;12.232;2022-10-17T02:49:44;52.95;;;39.10;;
14007;SDS011;61651;45.508;12.232;2022-10-17T02:52:51;55.42;;;38.97;;
14007;SDS011;61651;45.508;12.232;2022-10-17T02:55:58;53.13;;;38.60;;
14007;SDS011;61651;45.508;12.232;2022-10-17T02:59:06;55.58;;;40.15;;
14007;SDS011;61651;45.508;12.232;2022-10-17T03:02:12;52.75;;;37.55;;
14007;SDS011;61651;45.508;12.232;2022-10-17T03:05:16;49.95;;;35.72;;
14007;SDS011;61651;45.508;12.232;2022-10-17T03:08:19;54.45;;;38.90;;
14007;SDS011;61651;45.508;12.232;2022-10-17T03:11:22;54.17;;;39.00;;
14007;SDS011;61651;45.508;12.232;2022-10-17T03:14:24;49.33;;;37.47;;
14007;SDS011;61651;45.508;12.232;2022-10-17T03:17:26;54.60;;;40.22;;
14007;SDS011;61651;45.508;12.232;2022-10-17T03:20:29;50.08;;;35.58;;
14007;SDS011;61651;45.508;12.232;2022-10-17T03:23:32;52.35;;;37.55;;
14007;SDS011;61651;45.508;12.232;2022-10-17T03:26:33;50.33;;;36.50;;
14007;SDS011;61651;45.508;12.232;2022-10-17T03:29:36;52.88;;;37.45;;
14007;SDS011;61651;45.508;12.232;2022-10-17T03:32:38;53.55;;;36.42;;
14007;SDS011;61651;45.508;12.232;2022-10-17T03:35:41;48.05;;;35.50;;
14007;SDS011;61651;45.508;12.232;2022-10-17T03:38:43;54.08;;;37.42;;
14007;SDS011;61651;45.508;12.232;2022-10-17T03:41:45;49.80;;;36.92;;
14007;SDS011;61651;45.508;12.232;2022-10-17T03:44:47;56.38;;;38.25;;
14007;SDS011;61651;45.508;12.232;2022-10-17T03:47:49;53.85;;;36.28;;
14007;SDS011;61651;45.508;12.232;2022-10-17T03:50:56;46.83;;;33.78;;
14007;SDS011;61651;45.508;12.232;2022-10-17T03:53:59;51.17;;;36.65;;
14007;SDS011;61651;45.508;12.232;2022-10-17T03:57:01;52.35;;;36.28;;
14007;SDS011;61651;45.508;12.232;2022-10-17T04:00:04;51.03;;;36.72;;
14007;SDS011;61651;45.508;12.232;2022-10-17T04:03:07;48.03;;;36.05;;
14007;SDS011;61651;45.508;12.232;2022-10-17T04:06:11;50.28;;;37.20;;
14007;SDS011;61651;45.508;12.232;2022-10-17T04:09:13;50.13;;;36.35;;
14007;SDS011;61651;45.508;12.232;2022-10-17T04:12:15;54.20;;;38.25;;
14007;SDS011;61651;45.508;12.232;2022-10-17T04:15:17;49.08;;;36.38;;
14007;SDS011;61651;45.508;12.232;2022-10-17T04:18:19;52.67;;;37.55;;
14007;SDS011;61651;45.508;12.232;2022-10-17T04:21:23;52.95;;;38.45;;
14007;SDS011;61651;45.508;12.232;2022-10-17T04:24:26;52.10;;;37.42;;
14007;SDS011;61651;45.508;12.232;2022-10-17T04:27:28;53.85;;;36.28;;
14007;SDS011;61651;45.508;12.232;2022-10-17T04:30:30;50.95;;;37.78;;
14007;SDS011;61651;45.508;12.232;2022-10-17T04:33:33;52.08;;;38.13;;
14007;SDS011;61651;45.508;12.232;2022-10-17T04:36:36;54.08;;;37.10;;
14007;SDS011;61651;45.508;12.232;2022-10-17T04:39:38;55.03;;;37.22;;
14007;SDS011;61651;45.508;12.232;2022-10-17T04:42:40;51.13;;;36.05;;
14007;SDS011;61651;45.508;12.232;2022-10-17T04:45:42;48.90;;;35.15;;
14007;SDS011;61651;45.508;12.232;2022-10-17T04:48:44;49.47;;;35.63;;
14007;SDS011;61651;45.508;12.232;2022-10-17T04:51:48;48.72;;;35.05;;
14007;SDS011;61651;45.508;12.232;2022-10-17T04:54:50;52.25;;;36.63;;
14007;SDS011;61651;45.508;12.232;2022-10-17T04:57:52;49.58;;;36.53;;
14007;SDS011;61651;45.508;12.232;2022-10-17T05:00:54;52.67;;;37.00;;
14007;SDS011;61651;45.508;12.232;2022-10-17T05:03:56;51.35;;;37.15;;
14007;SDS011;61651;45.508;12.232;2022-10-17T05:07:00;51.00;;;38.03;;
14007;SDS011;61651;45.508;12.232;2022-10-17T05:10:02;51.95;;;37.42;;
14007;SDS011;61651;45.508;12.232;2022-10-17T05:13:04;52.70;;;36.95;;
14007;SDS011;61651;45.508;12.232;2022-10-17T05:16:06;52.38;;;37.08;;
14007;SDS011;61651;45.508;12.232;2022-10-17T05:19:08;50.75;;;36.90;;
14007;SDS011;61651;45.508;12.232;2022-10-17T05:22:13;43.10;;;31.23;;
14007;SDS011;61651;45.508;12.232;2022-10-17T05:25:15;47.35;;;35.42;;
14007;SDS011;61651;45.508;12.232;2022-10-17T05:28:17;51.75;;;35.95;;
14007;SDS011;61651;45.508;12.232;2022-10-17T05:31:21;48.28;;;36.45;;
14007;SDS011;61651;45.508;12.232;2022-10-17T05:34:23;49.70;;;35.13;;
14007;SDS011;61651;45.508;12.232;2022-10-17T05:37:29;49.67;;;36.13;;
14007;SDS011;61651;45.508;12.232;2022-10-17T05:40:32;44.05;;;33.25;;
14007;SDS011;61651;45.508;12.232;2022-10-17T05:43:34;45.95;;;33.92;;
14007;SDS011;61651;45.508;12.232;2022-10-17T05:46:36;46.78;;;33.72;;
14007;SDS011;61651;45.508;12.232;2022-10-17T05:49:38;44.75;;;33.13;;
14007;SDS011;61651;45.508;12.232;2022-10-17T05:52:41;49.50;;;34.03;;
14007;SDS011;61651;45.508;12.232;2022-10-17T05:55:43;48.67;;;35.30;;
14007;SDS011;61651;45.508;12.232;2022-10-17T05:58:45;44.00;;;33.25;;
14007;SDS011;61651;45.508;12.232;2022-10-17T06:01:48;42.15;;;31.83;;
14007;SDS011;61651;45.508;12.232;2022-10-17T06:04:49;46.78;;;31.52;;
14007;SDS011;61651;45.508;12.232;2022-10-17T06:07:53;44.10;;;31.27;;
14007;SDS011;61651;45.508;12.232;2022-10-17T06:10:55;42.25;;;32.33;;
14007;SDS011;61651;45.508;12.232;2022-10-17T06:13:57;47.35;;;32.85;;
14007;SDS011;61651;45.508;12.232;2022-10-17T06:16:59;45.22;;;32.38;;
14007;SDS011;61651;45.508;12.232;2022-10-17T06:20:01;42.33;;;31.67;;
14007;SDS011;61651;45.508;12.232;2022-10-17T06:23:05;42.13;;;31.23;;
14007;SDS011;61651;45.508;12.232;2022-10-17T06:26:07;43.95;;;32.33;;
14007;SDS011;61651;45.508;12.232;2022-10-17T06:29:09;44.03;;;31.80;;
14007;SDS011;61651;45.508;12.232;2022-10-17T06:32:11;45.28;;;33.63;;
14007;SDS011;61651;45.508;12.232;2022-10-17T06:35:13;42.60;;;33.13;;
14007;SDS011;61651;45.508;12.232;2022-10-17T06:38:17;48.13;;;35.55;;
14007;SDS011;61651;45.508;12.232;2022-10-17T06:41:19;44.05;;;32.80;;
14007;SDS011;61651;45.508;12.232;2022-10-17T06:44:21;46.47;;;33.80;;
14007;SDS011;61651;45.508;12.232;2022-10-17T06:47:27;44.85;;;33.65;;
14007;SDS011;61651;45.508;12.232;2022-10-17T06:50:29;50.65;;;36.42;;
14007;SDS011;61651;45.508;12.232;2022-10-17T06:53:33;47.67;;;34.70;;
14007;SDS011;61651;45.508;12.232;2022-10-17T06:56:35;47.03;;;33.38;;
14007;SDS011;61651;45.508;12.232;2022-10-17T06:59:37;50.30;;;37.08;;
14007;SDS011;61651;45.508;12.232;2022-10-17T07:02:41;52.72;;;35.67;;
14007;SDS011;61651;45.508;12.232;2022-10-17T07:05:49;47.50;;;34.05;;
14007;SDS011;61651;45.508;12.232;2022-10-17T07:08:53;49.80;;;35.72;;
14007;SDS011;61651;45.508;12.232;2022-10-17T07:11:55;48.70;;;35.35;;
14007;SDS011;61651;45.508;12.232;2022-10-17T07:14:57;55.05;;;37.42;;
14007;SDS011;61651;45.508;12.232;2022-10-17T07:17:59;51.65;;;36.92;;
14007;SDS011;61651;45.508;12.232;2022-10-17T07:21:02;48.83;;;34.65;;
14007;SDS011;61651;45.508;12.232;2022-10-17T07:24:06;55.72;;;37.22;;
14007;SDS011;61651;45.508;12.232;2022-10-17T07:27:08;51.53;;;37.85;;
14007;SDS011;61651;45.508;12.232;2022-10-17T07:30:10;51.40;;;36.38;;
14007;SDS011;61651;45.508;12.232;2022-10-17T07:33:12;50.05;;;35.88;;
14007;SDS011;61651;45.508;12.232;2022-10-17T07:36:15;53.13;;;35.50;;
14007;SDS011;61651;45.508;12.232;2022-10-17T07:39:19;52.22;;;35.67;;
14007;SDS011;61651;45.508;12.232;2022-10-17T07:42:21;47.83;;;34.55;;
14007;SDS011;61651;45.508;12.232;2022-10-17T07:45:23;49.58;;;36.05;;
14007;SDS011;61651;45.508;12.232;2022-10-17T07:48:26;47.78;;;36.95;;
14007;SDS011;61651;45.508;12.232;2022-10-17T07:51:28;49.92;;;36.95;;
14007;SDS011;61651;45.508;12.232;2022-10-17T07:54:32;48.88;;;36.65;;
14007;SDS011;61651;45.508;12.232;2022-10-17T07:57:34;52.75;;;38.40;;
14007;SDS011;61651;45.508;12.232;2022-10-17T08:00:36;50.88;;;36.38;;
14007;SDS011;61651;45.508;12.232;2022-10-17T08:03:38;48.78;;;35.40;;
14007;SDS011;61651;45.508;12.232;2022-10-17T08:06:41;48.20;;;35.17;;
14007;SDS011;61651;45.508;12.232;2022-10-17T08:09:45;51.00;;;35.65;;
14007;SDS011;61651;45.508;12.232;2022-10-17T08:12:48;47.83;;;35.08;;
14007;SDS011;61651;45.508;12.232;2022-10-17T08:15:50;47.38;;;35.67;;
14007;SDS011;61651;45.508;12.232;2022-10-17T08:18:51;46.55;;;34.95;;
14007;SDS011;61651;45.508;12.232;2022-10-17T08:21:54;42.25;;;32.95;;
14007;SDS011;61651;45.508;12.232;2022-10-17T08:24:58;47.65;;;34.95;;
14007;SDS011;61651;45.508;12.232;2022-10-17T08:28:00;46.67;;;35.22;;
14007;SDS011;61651;45.508;12.232;2022-10-17T08:31:03;48.75;;;35.50;;
14007;SDS011;61651;45.508;12.232;2022-10-17T08:34:05;46.35;;;36.13;;
14007;SDS011;61651;45.508;12.232;2022-10-17T08:37:07;47.20;;;34.45;;
14007;SDS011;61651;45.508;12.232;2022-10-17T08:40:13;49.53;;;35.60;;
14007;SDS011;61651;45.508;12.232;2022-10-17T08:43:24;45.38;;;33.72;;
14007;SDS011;61651;45.508;12.232;2022-10-17T08:46:34;48.65;;;35.50;;
14007;SDS011;61651;45.508;12.232;2022-10-17T08:49:42;49.00;;;35.83;;
14007;SDS011;61651;45.508;12.232;2022-10-17T08:52:49;47.05;;;33.38;;
14007;SDS011;61651;45.508;12.232;2022-10-17T08:55:55;51.47;;;40.50;;
14007;SDS011;61651;45.508;12.232;2022-10-17T08:59:00;47.22;;;36.50;;
14007;SDS011;61651;45.508;12.232;2022-10-17T09:02:12;48.00;;;36.60;;
14007;SDS011;61651;45.508;12.232;2022-10-17T09:05:27;46.67;;;34.83;;
14007;SDS011;61651;45.508;12.232;2022-10-17T09:08:36;43.83;;;34.55;;
14007;SDS011;61651;45.508;12.232;2022-10-17T09:11:53;46.05;;;33.35;;
14007;SDS011;61651;45.508;12.232;2022-10-17T09:15:19;40.88;;;32.45;;
14007;SDS011;61651;45.508;12.232;2022-10-17T09:18:34;41.60;;;32.55;;
14007;SDS011;61651;45.508;12.232;2022-10-17T09:21:41;40.67;;;32.85;;
14007;SDS011;61651;45.508;12.232;2022-10-17T09:24:47;47.97;;;34.60;;
14007;SDS011;61651;45.508;12.232;2022-10-17T09:28:00;42.90;;;32.55;;
14007;SDS011;61651;45.508;12.232;2022-10-17T09:31:11;42.83;;;32.47;;
14007;SDS011;61651;45.508;12.232;2022-10-17T09:34:18;42.97;;;34.47;;
14007;SDS011;61651;45.508;12.232;2022-10-17T09:37:23;39.75;;;31.58;;
14007;SDS011;61651;45.508;12.232;2022-10-17T09:40:33;40.65;;;32.05;;
14007;SDS011;61651;45.508;12.232;2022-10-17T09:43:38;43.67;;;32.03;;
14007;SDS011;61651;45.508;12.232;2022-10-17T09:46:40;43.03;;;32.15;;
14007;SDS011;61651;45.508;12.232;2022-10-17T09:49:50;40.65;;;30.92;;
14007;SDS011;61651;45.508;12.232;2022-10-17T09:52:52;42.05;;;32.38;;
14007;SDS011;61651;45.508;12.232;2022-10-17T09:55:56;43.30;;;31.08;;
14007;SDS011;61651;45.508;12.232;2022-10-17T09:59:03;42.33;;;30.83;;
14007;SDS011;61651;45.508;12.232;2022-10-17T10:02:09;39.78;;;31.05;;
14007;SDS011;61651;45.508;12.232;2022-10-17T10:05:17;41.08;;;31.38;;
14007;SDS011;61651;45.508;12.232;2022-10-17T10:08:20;44.22;;;32.88;;
14007;SDS011;61651;45.508;12.232;2022-10-17T10:14:47;42.40;;;33.58;;
14007;SDS011;61651;45.508;12.232;2022-10-17T10:17:49;42.90;;;33.45;;
14007;SDS011;61651;45.508;12.232;2022-10-17T10:21:01;40.80;;;32.30;;
14007;SDS011;61651;45.508;12.232;2022-10-17T10:24:09;46.38;;;33.65;;
14007;SDS011;61651;45.508;12.232;2022-10-17T10:27:13;41.65;;;32.47;;
14007;SDS011;61651;45.508;12.232;2022-10-17T10:30:19;43.20;;;33.78;;
14007;SDS011;61651;45.508;12.232;2022-10-17T10:33:25;48.83;;;39.27;;
14007;SDS011;61651;45.508;12.232;2022-10-17T10:36:42;46.40;;;34.75;;
14007;SDS011;61651;45.508;12.232;2022-10-17T10:39:50;40.53;;;32.53;;
14007;SDS011;61651;45.508;12.232;2022-10-17T10:42:55;42.15;;;31.30;;
14007;SDS011;61651;45.508;12.232;2022-10-17T10:46:00;39.97;;;27.77;;
14007;SDS011;61651;45.508;12.232;2022-10-17T10:49:07;45.72;;;33.10;;
14007;SDS011;61651;45.508;12.232;2022-10-17T10:52:30;40.78;;;31.05;;
14007;SDS011;61651;45.508;12.232;2022-10-17T10:55:39;45.58;;;34.20;;
14007;SDS011;61651;45.508;12.232;2022-10-17T10:58:51;47.97;;;35.42;;
14007;SDS011;61651;45.508;12.232;2022-10-17T11:01:57;50.00;;;37.13;;
14007;SDS011;61651;45.508;12.232;2022-10-17T11:05:05;52.80;;;41.53;;
14007;SDS011;61651;45.508;12.232;2022-10-17T11:08:17;44.55;;;34.55;;
14007;SDS011;61651;45.508;12.232;2022-10-17T11:11:25;47.15;;;34.80;;
14007;SDS011;61651;45.508;12.232;2022-10-17T11:14:34;44.40;;;33.33;;
14007;SDS011;61651;45.508;12.232;2022-10-17T11:17:44;45.30;;;32.50;;
14007;SDS011;61651;45.508;12.232;2022-10-17T11:20:53;55.30;;;34.55;;
14007;SDS011;61651;45.508;12.232;2022-10-17T11:24:01;41.17;;;31.88;;
14007;SDS011;61651;45.508;12.232;2022-10-17T11:27:07;44.20;;;32.45;;
14007;SDS011;61651;45.508;12.232;2022-10-17T11:30:11;37.33;;;29.15;;
14007;SDS011;61651;45.508;12.232;2022-10-17T11:33:16;42.38;;;32.30;;
14007;SDS011;61651;45.508;12.232;2022-10-17T11:36:25;43.58;;;32.72;;
14007;SDS011;61651;45.508;12.232;2022-10-17T11:39:30;42.13;;;31.83;;
14007;SDS011;61651;45.508;12.232;2022-10-17T11:42:50;45.33;;;31.13;;
14007;SDS011;61651;45.508;12.232;2022-10-17T11:46:00;41.42;;;32.13;;
14007;SDS011;61651;45.508;12.232;2022-10-17T11:49:09;45.87;;;35.53;;
14007;SDS011;61651;45.508;12.232;2022-10-17T11:52:18;40.70;;;32.13;;
14007;SDS011;61651;45.508;12.232;2022-10-17T11:55:29;46.30;;;31.60;;
14007;SDS011;61651;45.508;12.232;2022-10-17T11:58:34;39.63;;;31.48;;
14007;SDS011;61651;45.508;12.232;2022-10-17T12:01:43;40.08;;;32.22;;
14007;SDS011;61651;45.508;12.232;2022-10-17T12:04:53;46.25;;;38.88;;
14007;SDS011;61651;45.508;12.232;2022-10-17T12:08:02;41.45;;;32.20;;
14007;SDS011;61651;45.508;12.232;2022-10-17T12:11:13;41.60;;;31.65;;
14007;SDS011;61651;45.508;12.232;2022-10-17T12:14:36;43.28;;;32.33;;
14007;SDS011;61651;45.508;12.232;2022-10-17T12:17:45;36.95;;;27.33;;
14007;SDS011;61651;45.508;12.232;2022-10-17T12:20:59;41.20;;;30.83;;
14007;SDS011;61651;45.508;12.232;2022-10-17T12:24:01;41.53;;;32.10;;
14007;SDS011;61651;45.508;12.232;2022-10-17T12:30:50;42.38;;;32.45;;
14007;SDS011;61651;45.508;12.232;2022-10-17T12:33:55;37.85;;;29.55;;
14007;SDS011;61651;45.508;12.232;2022-10-17T12:37:01;40.25;;;29.23;;
14007;SDS011;61651;45.508;12.232;2022-10-17T12:40:09;40.90;;;30.15;;
14007;SDS011;61651;45.508;12.232;2022-10-17T12:43:47;36.15;;;29.00;;
14007;SDS011;61651;45.508;12.232;2022-10-17T12:46:53;48.30;;;35.88;;
14007;SDS011;61651;45.508;12.232;2022-10-17T12:49:57;47.90;;;35.33;;
14007;SDS011;61651;45.508;12.232;2022-10-17T12:53:02;51.80;;;37.38;;
14007;SDS011;61651;45.508;12.232;2022-10-17T12:56:07;40.92;;;31.05;;
14007;SDS011;61651;45.508;12.232;2022-10-17T12:59:12;46.67;;;35.28;;
14007;SDS011;61651;45.508;12.232;2022-10-17T13:02:18;43.72;;;33.85;;
14007;SDS011;61651;45.508;12.232;2022-10-17T13:05:24;47.55;;;36.70;;
14007;SDS011;61651;45.508;12.232;2022-10-17T13:08:32;46.97;;;35.75;;
14007;SDS011;61651;45.508;12.232;2022-10-17T13:11:36;46.53;;;34.75;;
14007;SDS011;61651;45.508;12.232;2022-10-17T13:14:40;52.13;;;37.13;;
14007;SDS011;61651;45.508;12.232;2022-10-17T13:17:44;51.67;;;35.15;;
14007;SDS011;61651;45.508;12.232;2022-10-17T13:20:59;44.03;;;33.78;;
14007;SDS011;61651;45.508;12.232;2022-10-17T13:27:30;43.35;;;30.95;;
14007;SDS011;61651;45.508;12.232;2022-10-17T13:30:34;46.35;;;33.10;;
14007;SDS011;61651;45.508;12.232;2022-10-17T13:33:37;43.45;;;32.92;;
14007;SDS011;61651;45.508;12.232;2022-10-17T13:36:41;38.45;;;31.13;;
14007;SDS011;61651;45.508;12.232;2022-10-17T13:39:49;43.30;;;32.28;;
14007;SDS011;61651;45.508;12.232;2022-10-17T13:42:51;43.78;;;33.40;;
14007;SDS011;61651;45.508;12.232;2022-10-17T13:45:55;45.58;;;31.77;;
14007;SDS011;61651;45.508;12.232;2022-10-17T13:49:08;41.45;;;30.50;;
14007;SDS011;61651;45.508;12.232;2022-10-17T13:52:16;44.50;;;30.30;;
14007;SDS011;61651;45.508;12.232;2022-10-17T13:55:21;41.42;;;29.83;;
14007;SDS011;61651;45.508;12.232;2022-10-17T13:58:23;38.47;;;29.73;;
14007;SDS011;61651;45.508;12.232;2022-10-17T14:01:27;40.25;;;30.60;;
14007;SDS011;61651;45.508;12.232;2022-10-17T14:04:30;38.22;;;27.95;;
14007;SDS011;61651;45.508;12.232;2022-10-17T14:07:34;40.55;;;28.55;;
14007;SDS011;61651;45.508;12.232;2022-10-17T14:10:40;43.27;;;34.93;;
14007;SDS011;61651;45.508;12.232;2022-10-17T14:13:46;41.92;;;31.95;;
14007;SDS011;61651;45.508;12.232;2022-10-17T14:16:49;35.53;;;28.27;;
14007;SDS011;61651;45.508;12.232;2022-10-17T14:19:51;39.42;;;29.67;;
14007;SDS011;61651;45.508;12.232;2022-10-17T14:22:54;36.85;;;29.35;;
14007;SDS011;61651;45.508;12.232;2022-10-17T14:26:06;34.97;;;27.65;;
14007;SDS011;61651;45.508;12.232;2022-10-17T14:29:17;36.50;;;29.95;;
14007;SDS011;61651;45.508;12.232;2022-10-17T14:32:22;33.83;;;26.33;;
14007;SDS011;61651;45.508;12.232;2022-10-17T14:35:24;35.22;;;26.25;;
14007;SDS011;61651;45.508;12.232;2022-10-17T14:38:28;34.13;;;25.67;;
14007;SDS011;61651;45.508;12.232;2022-10-17T14:41:32;31.23;;;24.42;;
14007;SDS011;61651;45.508;12.232;2022-10-17T14:44:36;33.42;;;25.35;;
14007;SDS011;61651;45.508;12.232;2022-10-17T14:47:38;29.45;;;23.92;;
14007;SDS011;61651;45.508;12.232;2022-10-17T14:50:41;33.72;;;26.15;;
14007;SDS011;61651;45.508;12.232;2022-10-17T14:54:04;32.90;;;24.75;;
14007;SDS011;61651;45.508;12.232;2022-10-17T14:57:23;28.65;;;21.98;;
14007;SDS011;61651;45.508;12.232;2022-10-17T15:00:27;32.53;;;25.73;;
14007;SDS011;61651;45.508;12.232;2022-10-17T15:03:29;33.83;;;26.08;;
14007;SDS011;61651;45.508;12.232;2022-10-17T15:06:32;30.90;;;22.33;;
14007;SDS011;61651;45.508;12.232;2022-10-17T15:09:34;31.85;;;23.98;;
14007;SDS011;61651;45.508;12.232;2022-10-17T15:12:38;31.02;;;23.80;;
14007;SDS011;61651;45.508;12.232;2022-10-17T15:15:40;31.05;;;23.25;;
14007;SDS011;61651;45.508;12.232;2022-10-17T15:18:43;28.90;;;22.23;;
14007;SDS011;61651;45.508;12.232;2022-10-17T15:21:45;28.98;;;21.50;;
14007;SDS011;61651;45.508;12.232;2022-10-17T15:24:47;32.45;;;26.02;;
14007;SDS011;61651;45.508;12.232;2022-10-17T15:27:51;29.77;;;22.98;;
14007;SDS011;61651;45.508;12.232;2022-10-17T15:30:53;32.22;;;25.67;;
14007;SDS011;61651;45.508;12.232;2022-10-17T15:33:55;31.98;;;24.00;;
14007;SDS011;61651;45.508;12.232;2022-10-17T15:36:57;31.85;;;24.67;;
14007;SDS011;61651;45.508;12.232;2022-10-17T15:39:59;29.92;;;23.58;;
14007;SDS011;61651;45.508;12.232;2022-10-17T15:43:02;30.10;;;23.90;;
14007;SDS011;61651;45.508;12.232;2022-10-17T15:46:08;31.55;;;23.08;;
14007;SDS011;61651;45.508;12.232;2022-10-17T15:49:13;30.60;;;22.00;;
14007;SDS011;61651;45.508;12.232;2022-10-17T15:52:18;29.23;;;22.92;;
14007;SDS011;61651;45.508;12.232;2022-10-17T15:55:21;29.13;;;22.88;;
14007;SDS011;61651;45.508;12.232;2022-10-17T15:58:24;26.23;;;22.63;;
14007;SDS011;61651;45.508;12.232;2022-10-17T16:01:31;26.63;;;20.33;;
14007;SDS011;61651;45.508;12.232;2022-10-17T16:04:34;23.27;;;20.80;;
14007;SDS011;61651;45.508;12.232;2022-10-17T16:07:36;26.55;;;21.80;;
14007;SDS011;61651;45.508;12.232;2022-10-17T16:10:38;35.45;;;21.77;;
14007;SDS011;61651;45.508;12.232;2022-10-17T16:13:41;27.60;;;21.25;;
14007;SDS011;61651;45.508;12.232;2022-10-17T16:16:49;28.88;;;22.65;;
14007;SDS011;61651;45.508;12.232;2022-10-17T16:19:51;28.80;;;22.90;;
14007;SDS011;61651;45.508;12.232;2022-10-17T16:22:54;28.50;;;22.17;;
14007;SDS011;61651;45.508;12.232;2022-10-17T16:25:59;29.73;;;22.95;;
14007;SDS011;61651;45.508;12.232;2022-10-17T16:29:02;32.28;;;25.00;;
14007;SDS011;61651;45.508;12.232;2022-10-17T16:32:04;35.55;;;27.02;;
14007;SDS011;61651;45.508;12.232;2022-10-17T16:35:07;35.08;;;28.08;;
14007;SDS011;61651;45.508;12.232;2022-10-17T16:38:12;35.00;;;28.02;;
14007;SDS011;61651;45.508;12.232;2022-10-17T16:41:21;33.38;;;27.20;;
14007;SDS011;61651;45.508;12.232;2022-10-17T16:44:26;38.03;;;28.23;;
14007;SDS011;61651;45.508;12.232;2022-10-17T16:47:28;35.85;;;26.80;;
14007;SDS011;61651;45.508;12.232;2022-10-17T16:50:30;39.22;;;29.33;;
14007;SDS011;61651;45.508;12.232;2022-10-17T16:53:34;43.13;;;33.33;;
14007;SDS011;61651;45.508;12.232;2022-10-17T16:56:39;42.38;;;32.05;;
14007;SDS011;61651;45.508;12.232;2022-10-17T16:59:42;45.42;;;33.05;;
14007;SDS011;61651;45.508;12.232;2022-10-17T17:02:45;44.47;;;34.90;;
14007;SDS011;61651;45.508;12.232;2022-10-17T17:05:48;50.35;;;34.88;;
14007;SDS011;61651;45.508;12.232;2022-10-17T17:08:51;47.20;;;34.65;;
14007;SDS011;61651;45.508;12.232;2022-10-17T17:11:53;46.67;;;32.80;;
14007;SDS011;61651;45.508;12.232;2022-10-17T17:14:56;49.63;;;34.33;;
14007;SDS011;61651;45.508;12.232;2022-10-17T17:17:58;49.13;;;36.08;;
14007;SDS011;61651;45.508;12.232;2022-10-17T17:21:01;51.28;;;35.53;;
14007;SDS011;61651;45.508;12.232;2022-10-17T17:24:04;48.67;;;33.70;;
14007;SDS011;61651;45.508;12.232;2022-10-17T17:27:06;50.40;;;36.25;;
14007;SDS011;61651;45.508;12.232;2022-10-17T17:30:10;52.95;;;34.53;;
14007;SDS011;61651;45.508;12.232;2022-10-17T17:33:12;56.78;;;38.55;;
14007;SDS011;61651;45.508;12.232;2022-10-17T17:36:15;56.28;;;36.35;;
14007;SDS011;61651;45.508;12.232;2022-10-17T17:39:19;52.33;;;36.67;;
14007;SDS011;61651;45.508;12.232;2022-10-17T17:42:21;51.70;;;32.92;;
14007;SDS011;61651;45.508;12.232;2022-10-17T17:45:24;53.35;;;35.67;;
14007;SDS011;61651;45.508;12.232;2022-10-17T17:48:26;48.08;;;34.60;;
14007;SDS011;61651;45.508;12.232;2022-10-17T17:51:28;67.85;;;45.30;;
14007;SDS011;61651;45.508;12.232;2022-10-17T17:54:30;59.50;;;40.08;;
14007;SDS011;61651;45.508;12.232;2022-10-17T17:57:32;51.70;;;37.33;;
14007;SDS011;61651;45.508;12.232;2022-10-17T18:00:35;50.92;;;36.78;;